Terminal Aerodrome Forecast
Issued by NWS Charleston, WV

Current Version | Previous Version | Graphics & Text | Print | Product List | Glossary On
Versions: 1 2 3 4 5 6 7 8 9 10 11 12 13 14 15 16 17 18 19 20 21 22 23 24 25 26 27 28
000
FTUS41 KRLX 210500 RRA
TAFHTS
TAF
KHTS 210547Z 2106/2206 23004KT P6SM BKN040
     FM210700 23004KT 6SM BR BKN040
     FM211000 VRB03KT 3SM BR BKN025
     FM211500 22004KT P6SM VCTS BKN025CB
     FM212000 22005KT P6SM VCTS BKN035CB
     FM220400 00000KT P6SM BKN040=

USA.gov is the U.S. government's official web portal to all federal, state and local government web resources and services.